TimePST,TemperatureF,Dew PointF,Humidity,Sea Level PressureIn,VisibilityMPH,Wind Direction,Wind SpeedMPH,Gust SpeedMPH,PrecipitationIn,Events,Conditions,WindDirDegrees,DateUTC
12:53 AM,35.1,28.0,76,30.17,10.0,Calm,Calm,-,N/A,,Clear,0,2013-01-21 08:53:00
1:53 AM,33.1,28.0,82,30.17,10.0,Calm,Calm,-,N/A,,Clear,0,2013-01-21 09:53:00
2:53 AM,32.0,28.0,85,30.16,10.0,Calm,Calm,-,N/A,,Clear,0,2013-01-21 10:53:00
3:53 AM,32.0,27.0,82,30.15,10.0,Calm,Calm,-,N/A,,Clear,0,2013-01-21 11:53:00
4:53 AM,32.0,27.0,82,30.15,10.0,Calm,Calm,-,N/A,,Clear,0,2013-01-21 12:53:00
5:53 AM,30.9,27.0,85,30.14,10.0,Calm,Calm,-,N/A,,Clear,0,2013-01-21 13:53:00
6:53 AM,30.9,28.0,89,30.15,10.0,Calm,Calm,-,N/A,,Clear,0,2013-01-21 14:53:00
7:53 AM,32.0,28.0,85,30.17,10.0,Calm,Calm,-,N/A,,Clear,0,2013-01-21 15:53:00
8:53 AM,37.0,33.1,86,30.18,10.0,Calm,Calm,-,N/A,,Clear,0,2013-01-21 16:53:00
9:53 AM,45.0,36.0,71,30.19,10.0,Calm,Calm,-,N/A,,Clear,0,2013-01-21 17:53:00
10:53 AM,51.1,37.9,61,30.20,10.0,Calm,Calm,-,N/A,,Clear,0,2013-01-21 18:53:00
11:53 AM,59.0,39.0,48,30.16,10.0,ENE,10.4,-,N/A,,Clear,60,2013-01-21 19:53:00
12:53 PM,60.1,39.0,46,30.14,10.0,ENE,11.5,-,N/A,,Clear,70,2013-01-21 20:53:00
1:53 PM,59.0,39.0,48,30.14,8.0,ENE,12.7,-,N/A,,Clear,70,2013-01-21 21:53:00
2:53 PM,57.0,41.0,55,30.13,7.0,ENE,15.0,-,N/A,,Clear,60,2013-01-21 22:53:00
3:53 PM,57.0,39.9,53,30.12,7.0,ENE,13.8,-,N/A,,Clear,60,2013-01-21 23:53:00
4:53 PM,55.0,39.0,55,30.11,7.0,NE,11.5,-,N/A,,Clear,50,2013-01-22 00:53:00
5:53 PM,51.1,37.9,61,30.11,9.0,ENE,6.9,-,N/A,,Clear,60,2013-01-22 01:53:00
6:53 PM,46.9,37.0,68,30.12,10.0,East,5.8,-,N/A,,Clear,80,2013-01-22 02:53:00
7:53 PM,45.0,37.9,76,30.12,7.0,Calm,Calm,-,N/A,,Clear,0,2013-01-22 03:53:00
8:53 PM,43.0,37.0,80,30.13,7.0,East,3.5,-,N/A,,Clear,80,2013-01-22 04:53:00
9:53 PM,39.9,35.1,83,30.15,6.0,Calm,Calm,-,N/A,,Haze,0,2013-01-22 05:53:00
10:53 PM,39.0,35.1,86,30.15,6.0,Calm,Calm,-,N/A,,Clear,0,2013-01-22 06:53:00
11:53 PM,37.9,35.1,89,30.14,5.0,Calm,Calm,-,N/A,,Clear,0,2013-01-22 07:53:00